sensor_id;sensor_type;location;lat;lon;timestamp;P1;durP1;ratioP1;P2;durP2;ratioP2
66118;SDS011;52912;48.564;9.302;2022-10-19T00:01:30;9.68;;;4.78;;
66118;SDS011;52912;48.564;9.302;2022-10-19T00:03:56;10.48;;;4.60;;
66118;SDS011;52912;48.564;9.302;2022-10-19T00:06:22;12.50;;;4.57;;
66118;SDS011;52912;48.564;9.302;2022-10-19T00:08:51;14.32;;;4.88;;
66118;SDS011;52912;48.564;9.302;2022-10-19T00:11:17;12.15;;;4.78;;
66118;SDS011;52912;48.564;9.302;2022-10-19T00:13:43;9.00;;;5.63;;
66118;SDS011;52912;48.564;9.302;2022-10-19T00:16:09;8.75;;;5.05;;
66118;SDS011;52912;48.564;9.302;2022-10-19T00:18:35;10.50;;;5.20;;
66118;SDS011;52912;48.564;9.302;2022-10-19T00:21:02;8.88;;;5.45;;
66118;SDS011;52912;48.564;9.302;2022-10-19T00:23:28;17.58;;;5.65;;
66118;SDS011;52912;48.564;9.302;2022-10-19T00:25:55;9.10;;;5.40;;
66118;SDS011;52912;48.564;9.302;2022-10-19T00:28:21;9.52;;;5.78;;
66118;SDS011;52912;48.564;9.302;2022-10-19T00:30:46;11.77;;;5.90;;
66118;SDS011;52912;48.564;9.302;2022-10-19T00:33:12;9.05;;;5.72;;
66118;SDS011;52912;48.564;9.302;2022-10-19T00:35:38;7.25;;;4.75;;
66118;SDS011;52912;48.564;9.302;2022-10-19T00:38:04;11.45;;;4.00;;
66118;SDS011;52912;48.564;9.302;2022-10-19T00:40:35;8.88;;;4.80;;
66118;SDS011;52912;48.564;9.302;2022-10-19T00:43:02;9.20;;;4.72;;
66118;SDS011;52912;48.564;9.302;2022-10-19T00:45:28;9.23;;;5.50;;
66118;SDS011;52912;48.564;9.302;2022-10-19T00:47:53;10.77;;;4.97;;
66118;SDS011;52912;48.564;9.302;2022-10-19T00:50:19;9.55;;;4.60;;
66118;SDS011;52912;48.564;9.302;2022-10-19T00:52:45;10.15;;;5.03;;
66118;SDS011;52912;48.564;9.302;2022-10-19T00:55:11;52.42;;;6.78;;
66118;SDS011;52912;48.564;9.302;2022-10-19T00:57:37;47.00;;;6.65;;
66118;SDS011;52912;48.564;9.302;2022-10-19T01:00:06;29.90;;;6.15;;
66118;SDS011;52912;48.564;9.302;2022-10-19T01:02:32;9.32;;;5.95;;
66118;SDS011;52912;48.564;9.302;2022-10-19T01:04:58;11.68;;;5.60;;
66118;SDS011;52912;48.564;9.302;2022-10-19T01:07:24;6.88;;;5.25;;
66118;SDS011;52912;48.564;9.302;2022-10-19T01:09:51;13.45;;;5.20;;
66118;SDS011;52912;48.564;9.302;2022-10-19T01:12:39;10.05;;;5.68;;
66118;SDS011;52912;48.564;9.302;2022-10-19T01:15:26;8.55;;;5.40;;
66118;SDS011;52912;48.564;9.302;2022-10-19T01:17:58;18.63;;;5.97;;
66118;SDS011;52912;48.564;9.302;2022-10-19T01:20:39;18.75;;;7.28;;
66118;SDS011;52912;48.564;9.302;2022-10-19T01:23:30;13.32;;;6.55;;
66118;SDS011;52912;48.564;9.302;2022-10-19T01:26:19;12.45;;;6.50;;
66118;SDS011;52912;48.564;9.302;2022-10-19T01:29:00;12.48;;;6.00;;
66118;SDS011;52912;48.564;9.302;2022-10-19T01:31:32;16.15;;;6.50;;
66118;SDS011;52912;48.564;9.302;2022-10-19T01:34:05;8.40;;;5.60;;
66118;SDS011;52912;48.564;9.302;2022-10-19T01:36:38;7.85;;;5.32;;
66118;SDS011;52912;48.564;9.302;2022-10-19T01:39:09;11.50;;;5.72;;
66118;SDS011;52912;48.564;9.302;2022-10-19T01:41:40;9.35;;;5.70;;
66118;SDS011;52912;48.564;9.302;2022-10-19T01:44:12;13.05;;;5.60;;
66118;SDS011;52912;48.564;9.302;2022-10-19T01:46:42;13.77;;;6.97;;
66118;SDS011;52912;48.564;9.302;2022-10-19T01:49:12;8.18;;;5.30;;
66118;SDS011;52912;48.564;9.302;2022-10-19T01:51:41;13.25;;;5.90;;
66118;SDS011;52912;48.564;9.302;2022-10-19T01:54:11;16.17;;;7.28;;
66118;SDS011;52912;48.564;9.302;2022-10-19T01:56:39;29.98;;;7.22;;
66118;SDS011;52912;48.564;9.302;2022-10-19T01:59:06;19.60;;;7.10;;
66118;SDS011;52912;48.564;9.302;2022-10-19T02:01:34;25.15;;;7.40;;
66118;SDS011;52912;48.564;9.302;2022-10-19T02:04:04;22.80;;;6.90;;
66118;SDS011;52912;48.564;9.302;2022-10-19T02:06:29;21.70;;;7.53;;
66118;SDS011;52912;48.564;9.302;2022-10-19T02:08:55;25.65;;;7.75;;
66118;SDS011;52912;48.564;9.302;2022-10-19T02:11:21;18.33;;;7.72;;
66118;SDS011;52912;48.564;9.302;2022-10-19T02:13:48;13.75;;;7.65;;
66118;SDS011;52912;48.564;9.302;2022-10-19T02:16:19;15.00;;;7.63;;
66118;SDS011;52912;48.564;9.302;2022-10-19T02:18:49;16.40;;;7.85;;
66118;SDS011;52912;48.564;9.302;2022-10-19T02:21:17;11.43;;;7.18;;
66118;SDS011;52912;48.564;9.302;2022-10-19T02:23:43;13.80;;;7.97;;
66118;SDS011;52912;48.564;9.302;2022-10-19T02:26:09;13.45;;;8.93;;
66118;SDS011;52912;48.564;9.302;2022-10-19T02:28:35;13.70;;;7.85;;
66118;SDS011;52912;48.564;9.302;2022-10-19T02:31:01;10.48;;;6.32;;
66118;SDS011;52912;48.564;9.302;2022-10-19T02:33:27;14.30;;;6.35;;
66118;SDS011;52912;48.564;9.302;2022-10-19T02:35:53;11.13;;;5.95;;
66118;SDS011;52912;48.564;9.302;2022-10-19T02:38:20;9.52;;;5.60;;
66118;SDS011;52912;48.564;9.302;2022-10-19T02:43:20;10.57;;;5.50;;
66118;SDS011;52912;48.564;9.302;2022-10-19T02:45:48;10.85;;;5.75;;
66118;SDS011;52912;48.564;9.302;2022-10-19T02:48:19;9.80;;;5.75;;
66118;SDS011;52912;48.564;9.302;2022-10-19T02:50:47;22.27;;;5.13;;
66118;SDS011;52912;48.564;9.302;2022-10-19T02:53:12;153.82;;;7.45;;
66118;SDS011;52912;48.564;9.302;2022-10-19T02:55:39;139.32;;;6.25;;
66118;SDS011;52912;48.564;9.302;2022-10-19T02:58:06;39.13;;;5.32;;
66118;SDS011;52912;48.564;9.302;2022-10-19T03:00:32;51.33;;;5.47;;
66118;SDS011;52912;48.564;9.302;2022-10-19T03:02:57;52.88;;;5.18;;
66118;SDS011;52912;48.564;9.302;2022-10-19T03:05:23;54.38;;;5.78;;
66118;SDS011;52912;48.564;9.302;2022-10-19T03:07:48;34.17;;;5.00;;
66118;SDS011;52912;48.564;9.302;2022-10-19T03:10:14;57.55;;;5.65;;
66118;SDS011;52912;48.564;9.302;2022-10-19T03:12:40;146.45;;;6.47;;
66118;SDS011;52912;48.564;9.302;2022-10-19T03:15:06;9.07;;;4.85;;
66118;SDS011;52912;48.564;9.302;2022-10-19T03:17:33;15.25;;;5.30;;
66118;SDS011;52912;48.564;9.302;2022-10-19T03:19:58;5.43;;;4.20;;
66118;SDS011;52912;48.564;9.302;2022-10-19T03:22:23;35.85;;;5.03;;
66118;SDS011;52912;48.564;9.302;2022-10-19T03:24:49;14.13;;;5.13;;
66118;SDS011;52912;48.564;9.302;2022-10-19T03:27:14;10.98;;;5.22;;
66118;SDS011;52912;48.564;9.302;2022-10-19T03:29:41;8.68;;;5.18;;
66118;SDS011;52912;48.564;9.302;2022-10-19T03:32:07;11.10;;;5.22;;
66118;SDS011;52912;48.564;9.302;2022-10-19T03:34:32;10.60;;;5.53;;
66118;SDS011;52912;48.564;9.302;2022-10-19T03:36:57;19.67;;;5.63;;
66118;SDS011;52912;48.564;9.302;2022-10-19T03:39:23;7.07;;;5.40;;
66118;SDS011;52912;48.564;9.302;2022-10-19T03:41:49;6.10;;;4.43;;
66118;SDS011;52912;48.564;9.302;2022-10-19T03:44:15;30.83;;;5.82;;
66118;SDS011;52912;48.564;9.302;2022-10-19T03:46:41;8.35;;;6.50;;
66118;SDS011;52912;48.564;9.302;2022-10-19T03:49:07;57.08;;;6.43;;
66118;SDS011;52912;48.564;9.302;2022-10-19T03:51:33;13.63;;;7.18;;
66118;SDS011;52912;48.564;9.302;2022-10-19T03:53:59;14.48;;;6.38;;
66118;SDS011;52912;48.564;9.302;2022-10-19T03:56:26;23.10;;;6.38;;
66118;SDS011;52912;48.564;9.302;2022-10-19T03:58:54;67.18;;;6.88;;
66118;SDS011;52912;48.564;9.302;2022-10-19T04:01:22;24.85;;;6.75;;
66118;SDS011;52912;48.564;9.302;2022-10-19T04:03:52;20.10;;;6.35;;
66118;SDS011;52912;48.564;9.302;2022-10-19T04:06:18;13.05;;;6.50;;
66118;SDS011;52912;48.564;9.302;2022-10-19T04:08:47;14.97;;;6.77;;
66118;SDS011;52912;48.564;9.302;2022-10-19T04:11:14;26.88;;;7.05;;
66118;SDS011;52912;48.564;9.302;2022-10-19T04:13:40;15.63;;;6.90;;
66118;SDS011;52912;48.564;9.302;2022-10-19T04:16:06;11.02;;;6.50;;
66118;SDS011;52912;48.564;9.302;2022-10-19T04:18:32;12.77;;;6.93;;
66118;SDS011;52912;48.564;9.302;2022-10-19T04:21:00;9.48;;;6.38;;
66118;SDS011;52912;48.564;9.302;2022-10-19T04:23:26;9.80;;;7.05;;
66118;SDS011;52912;48.564;9.302;2022-10-19T04:25:57;10.52;;;6.25;;
66118;SDS011;52912;48.564;9.302;2022-10-19T04:28:23;10.23;;;7.03;;
66118;SDS011;52912;48.564;9.302;2022-10-19T04:30:49;13.75;;;7.85;;
66118;SDS011;52912;48.564;9.302;2022-10-19T04:33:14;10.43;;;7.55;;
66118;SDS011;52912;48.564;9.302;2022-10-19T04:35:40;14.02;;;7.50;;
66118;SDS011;52912;48.564;9.302;2022-10-19T04:38:07;16.45;;;6.88;;
66118;SDS011;52912;48.564;9.302;2022-10-19T04:40:33;10.70;;;7.15;;
66118;SDS011;52912;48.564;9.302;2022-10-19T04:42:59;17.38;;;7.00;;
66118;SDS011;52912;48.564;9.302;2022-10-19T04:45:24;8.65;;;6.28;;
66118;SDS011;52912;48.564;9.302;2022-10-19T04:47:50;18.40;;;7.47;;
66118;SDS011;52912;48.564;9.302;2022-10-19T04:50:15;44.88;;;7.38;;
66118;SDS011;52912;48.564;9.302;2022-10-19T04:52:42;17.90;;;6.95;;
66118;SDS011;52912;48.564;9.302;2022-10-19T04:55:10;21.17;;;6.55;;
66118;SDS011;52912;48.564;9.302;2022-10-19T04:57:35;13.63;;;6.63;;
66118;SDS011;52912;48.564;9.302;2022-10-19T05:00:01;15.77;;;6.93;;
66118;SDS011;52912;48.564;9.302;2022-10-19T05:02:27;17.70;;;6.55;;
66118;SDS011;52912;48.564;9.302;2022-10-19T05:04:52;14.32;;;6.45;;
66118;SDS011;52912;48.564;9.302;2022-10-19T05:07:18;19.42;;;6.47;;
66118;SDS011;52912;48.564;9.302;2022-10-19T05:09:43;19.42;;;6.20;;
66118;SDS011;52912;48.564;9.302;2022-10-19T05:12:10;16.58;;;5.60;;
66118;SDS011;52912;48.564;9.302;2022-10-19T05:14:36;11.30;;;6.43;;
66118;SDS011;52912;48.564;9.302;2022-10-19T05:17:01;20.25;;;6.30;;
66118;SDS011;52912;48.564;9.302;2022-10-19T05:19:26;9.43;;;5.90;;
66118;SDS011;52912;48.564;9.302;2022-10-19T05:21:52;15.57;;;6.47;;
66118;SDS011;52912;48.564;9.302;2022-10-19T05:24:17;45.70;;;7.30;;
66118;SDS011;52912;48.564;9.302;2022-10-19T05:26:43;166.85;;;9.15;;
66118;SDS011;52912;48.564;9.302;2022-10-19T05:29:10;143.60;;;8.23;;
66118;SDS011;52912;48.564;9.302;2022-10-19T05:31:37;331.38;;;11.15;;
66118;SDS011;52912;48.564;9.302;2022-10-19T05:34:02;173.73;;;7.30;;
66118;SDS011;52912;48.564;9.302;2022-10-19T05:36:28;57.60;;;6.15;;
66118;SDS011;52912;48.564;9.302;2022-10-19T05:38:55;12.90;;;5.28;;
66118;SDS011;52912;48.564;9.302;2022-10-19T05:41:22;8.80;;;5.60;;
66118;SDS011;52912;48.564;9.302;2022-10-19T05:43:50;13.13;;;5.75;;
66118;SDS011;52912;48.564;9.302;2022-10-19T05:46:18;9.77;;;5.87;;
66118;SDS011;52912;48.564;9.302;2022-10-19T05:48:43;8.38;;;5.95;;
66118;SDS011;52912;48.564;9.302;2022-10-19T05:51:10;9.45;;;5.90;;
66118;SDS011;52912;48.564;9.302;2022-10-19T05:53:37;11.00;;;6.00;;
66118;SDS011;52912;48.564;9.302;2022-10-19T05:56:03;9.38;;;5.72;;
66118;SDS011;52912;48.564;9.302;2022-10-19T05:58:30;12.43;;;6.53;;
66118;SDS011;52912;48.564;9.302;2022-10-19T06:00:56;8.15;;;5.95;;
66118;SDS011;52912;48.564;9.302;2022-10-19T06:03:24;11.55;;;6.70;;
66118;SDS011;52912;48.564;9.302;2022-10-19T06:05:50;12.05;;;6.10;;
66118;SDS011;52912;48.564;9.302;2022-10-19T06:08:17;10.50;;;6.07;;
66118;SDS011;52912;48.564;9.302;2022-10-19T06:10:44;9.93;;;5.68;;
66118;SDS011;52912;48.564;9.302;2022-10-19T06:13:10;8.48;;;5.43;;
66118;SDS011;52912;48.564;9.302;2022-10-19T06:15:36;8.75;;;5.93;;
66118;SDS011;52912;48.564;9.302;2022-10-19T06:18:02;10.93;;;6.13;;
66118;SDS011;52912;48.564;9.302;2022-10-19T06:20:29;11.90;;;6.07;;
66118;SDS011;52912;48.564;9.302;2022-10-19T06:22:55;9.05;;;5.65;;
66118;SDS011;52912;48.564;9.302;2022-10-19T06:25:20;9.05;;;6.13;;
66118;SDS011;52912;48.564;9.302;2022-10-19T06:27:45;9.77;;;5.53;;
66118;SDS011;52912;48.564;9.302;2022-10-19T06:30:11;17.33;;;6.68;;
66118;SDS011;52912;48.564;9.302;2022-10-19T06:32:36;12.80;;;6.55;;
66118;SDS011;52912;48.564;9.302;2022-10-19T06:35:02;10.60;;;6.38;;
66118;SDS011;52912;48.564;9.302;2022-10-19T06:37:29;16.55;;;7.35;;
66118;SDS011;52912;48.564;9.302;2022-10-19T06:39:54;11.43;;;6.93;;
66118;SDS011;52912;48.564;9.302;2022-10-19T06:42:20;12.52;;;7.10;;
66118;SDS011;52912;48.564;9.302;2022-10-19T06:44:45;14.90;;;6.55;;
66118;SDS011;52912;48.564;9.302;2022-10-19T06:47:11;11.38;;;7.53;;
66118;SDS011;52912;48.564;9.302;2022-10-19T06:49:36;12.90;;;8.05;;
66118;SDS011;52912;48.564;9.302;2022-10-19T06:52:02;13.10;;;7.47;;
66118;SDS011;52912;48.564;9.302;2022-10-19T06:54:29;13.90;;;7.65;;
66118;SDS011;52912;48.564;9.302;2022-10-19T06:56:54;12.95;;;7.38;;
66118;SDS011;52912;48.564;9.302;2022-10-19T06:59:20;15.10;;;7.88;;
66118;SDS011;52912;48.564;9.302;2022-10-19T07:01:45;15.00;;;8.40;;
66118;SDS011;52912;48.564;9.302;2022-10-19T07:04:11;21.00;;;8.57;;
66118;SDS011;52912;48.564;9.302;2022-10-19T07:06:36;15.18;;;7.82;;
66118;SDS011;52912;48.564;9.302;2022-10-19T07:09:01;18.25;;;7.40;;
66118;SDS011;52912;48.564;9.302;2022-10-19T07:11:28;12.75;;;7.07;;
66118;SDS011;52912;48.564;9.302;2022-10-19T07:13:54;13.75;;;6.90;;
66118;SDS011;52912;48.564;9.302;2022-10-19T07:16:19;12.55;;;6.65;;
66118;SDS011;52912;48.564;9.302;2022-10-19T07:18:45;17.70;;;6.47;;
66118;SDS011;52912;48.564;9.302;2022-10-19T07:21:11;13.38;;;6.28;;
66118;SDS011;52912;48.564;9.302;2022-10-19T07:23:39;17.95;;;6.60;;
66118;SDS011;52912;48.564;9.302;2022-10-19T07:26:06;15.98;;;6.72;;
66118;SDS011;52912;48.564;9.302;2022-10-19T07:28:33;11.65;;;6.53;;
66118;SDS011;52912;48.564;9.302;2022-10-19T07:31:03;16.17;;;6.97;;
66118;SDS011;52912;48.564;9.302;2022-10-19T07:33:29;10.18;;;6.32;;
66118;SDS011;52912;48.564;9.302;2022-10-19T07:35:57;18.52;;;6.97;;
66118;SDS011;52912;48.564;9.302;2022-10-19T07:38:23;10.40;;;6.23;;
66118;SDS011;52912;48.564;9.302;2022-10-19T07:40:48;13.55;;;6.97;;
66118;SDS011;52912;48.564;9.302;2022-10-19T07:43:14;10.30;;;6.93;;
66118;SDS011;52912;48.564;9.302;2022-10-19T07:45:41;9.65;;;6.88;;
66118;SDS011;52912;48.564;9.302;2022-10-19T07:48:06;10.88;;;7.18;;
66118;SDS011;52912;48.564;9.302;2022-10-19T07:50:32;16.63;;;7.22;;
66118;SDS011;52912;48.564;9.302;2022-10-19T07:52:57;12.23;;;7.80;;
66118;SDS011;52912;48.564;9.302;2022-10-19T07:55:22;11.25;;;7.47;;
66118;SDS011;52912;48.564;9.302;2022-10-19T07:57:48;13.98;;;7.18;;
66118;SDS011;52912;48.564;9.302;2022-10-19T08:00:14;17.73;;;7.47;;
66118;SDS011;52912;48.564;9.302;2022-10-19T08:02:41;14.18;;;7.68;;
66118;SDS011;52912;48.564;9.302;2022-10-19T08:05:07;11.10;;;6.75;;
66118;SDS011;52912;48.564;9.302;2022-10-19T08:07:33;12.23;;;6.97;;
66118;SDS011;52912;48.564;9.302;2022-10-19T08:09:58;13.02;;;7.15;;
66118;SDS011;52912;48.564;9.302;2022-10-19T08:12:24;11.63;;;7.13;;
66118;SDS011;52912;48.564;9.302;2022-10-19T08:14:49;10.63;;;7.03;;
66118;SDS011;52912;48.564;9.302;2022-10-19T08:17:15;10.35;;;6.78;;
66118;SDS011;52912;48.564;9.302;2022-10-19T08:19:41;11.95;;;7.32;;
66118;SDS011;52912;48.564;9.302;2022-10-19T08:22:07;14.15;;;8.70;;
66118;SDS011;52912;48.564;9.302;2022-10-19T08:24:33;10.13;;;7.22;;
66118;SDS011;52912;48.564;9.302;2022-10-19T08:26:58;17.25;;;8.05;;
66118;SDS011;52912;48.564;9.302;2022-10-19T08:29:24;12.52;;;8.57;;
66118;SDS011;52912;48.564;9.302;2022-10-19T08:31:49;12.45;;;8.43;;
66118;SDS011;52912;48.564;9.302;2022-10-19T08:34:15;9.68;;;6.95;;
66118;SDS011;52912;48.564;9.302;2022-10-19T08:36:42;10.90;;;7.50;;
66118;SDS011;52912;48.564;9.302;2022-10-19T08:39:08;10.07;;;7.13;;
66118;SDS011;52912;48.564;9.302;2022-10-19T08:41:35;9.25;;;6.97;;
66118;SDS011;52912;48.564;9.302;2022-10-19T08:44:15;10.05;;;6.28;;
66118;SDS011;52912;48.564;9.302;2022-10-19T08:47:09;15.77;;;6.15;;
66118;SDS011;52912;48.564;9.302;2022-10-19T08:49:42;12.55;;;6.78;;
66118;SDS011;52912;48.564;9.302;2022-10-19T08:52:11;9.57;;;6.55;;
66118;SDS011;52912;48.564;9.302;2022-10-19T08:54:42;10.45;;;7.35;;
66118;SDS011;52912;48.564;9.302;2022-10-19T08:57:12;13.10;;;8.18;;
66118;SDS011;52912;48.564;9.302;2022-10-19T08:59:48;10.50;;;7.20;;
66118;SDS011;52912;48.564;9.302;2022-10-19T09:02:20;11.45;;;7.40;;
66118;SDS011;52912;48.564;9.302;2022-10-19T09:04:55;11.85;;;8.00;;
66118;SDS011;52912;48.564;9.302;2022-10-19T09:07:26;11.13;;;7.03;;
66118;SDS011;52912;48.564;9.302;2022-10-19T09:09:55;11.68;;;7.80;;
66118;SDS011;52912;48.564;9.302;2022-10-19T09:14:56;10.93;;;7.13;;
66118;SDS011;52912;48.564;9.302;2022-10-19T09:19:50;19.58;;;8.00;;
66118;SDS011;52912;48.564;9.302;2022-10-19T09:22:17;13.93;;;7.72;;
66118;SDS011;52912;48.564;9.302;2022-10-19T09:24:47;13.52;;;8.30;;
66118;SDS011;52912;48.564;9.302;2022-10-19T09:27:15;13.13;;;7.70;;
66118;SDS011;52912;48.564;9.302;2022-10-19T09:29:45;10.68;;;6.45;;
66118;SDS011;52912;48.564;9.302;2022-10-19T09:32:14;8.10;;;5.88;;
66118;SDS011;52912;48.564;9.302;2022-10-19T09:34:44;8.15;;;4.90;;
66118;SDS011;52912;48.564;9.302;2022-10-19T09:37:13;7.03;;;4.80;;
66118;SDS011;52912;48.564;9.302;2022-10-19T09:39:39;8.85;;;5.18;;
66118;SDS011;52912;48.564;9.302;2022-10-19T09:42:09;6.90;;;4.85;;
66118;SDS011;52912;48.564;9.302;2022-10-19T09:44:40;18.75;;;6.03;;
66118;SDS011;52912;48.564;9.302;2022-10-19T09:47:11;8.73;;;6.00;;
66118;SDS011;52912;48.564;9.302;2022-10-19T09:49:50;7.68;;;5.60;;
66118;SDS011;52912;48.564;9.302;2022-10-19T09:52:31;12.85;;;5.68;;
66118;SDS011;52912;48.564;9.302;2022-10-19T09:55:02;8.10;;;5.35;;
66118;SDS011;52912;48.564;9.302;2022-10-19T09:57:30;11.57;;;6.13;;
66118;SDS011;52912;48.564;9.302;2022-10-19T09:59:56;12.20;;;6.05;;
66118;SDS011;52912;48.564;9.302;2022-10-19T10:02:27;8.60;;;5.32;;
66118;SDS011;52912;48.564;9.302;2022-10-19T10:04:55;12.38;;;5.25;;
66118;SDS011;52912;48.564;9.302;2022-10-19T10:07:28;9.82;;;5.97;;
66118;SDS011;52912;48.564;9.302;2022-10-19T10:09:59;7.03;;;5.13;;
66118;SDS011;52912;48.564;9.302;2022-10-19T10:12:24;8.50;;;4.80;;
66118;SDS011;52912;48.564;9.302;2022-10-19T10:14:51;6.22;;;4.18;;
66118;SDS011;52912;48.564;9.302;2022-10-19T10:17:18;5.85;;;3.72;;
66118;SDS011;52912;48.564;9.302;2022-10-19T10:19:49;8.40;;;3.85;;
66118;SDS011;52912;48.564;9.302;2022-10-19T10:22:23;6.28;;;3.90;;
66118;SDS011;52912;48.564;9.302;2022-10-19T10:24:52;6.30;;;4.07;;
66118;SDS011;52912;48.564;9.302;2022-10-19T10:27:24;8.82;;;4.45;;
66118;SDS011;52912;48.564;9.302;2022-10-19T10:29:55;9.23;;;4.88;;
66118;SDS011;52912;48.564;9.302;2022-10-19T10:32:21;5.80;;;3.67;;
66118;SDS011;52912;48.564;9.302;2022-10-19T10:34:54;5.72;;;4.10;;
66118;SDS011;52912;48.564;9.302;2022-10-19T10:37:22;9.50;;;4.50;;
66118;SDS011;52912;48.564;9.302;2022-10-19T10:39:52;7.65;;;5.18;;
66118;SDS011;52912;48.564;9.302;2022-10-19T10:42:21;6.78;;;5.25;;
66118;SDS011;52912;48.564;9.302;2022-10-19T10:44:52;9.05;;;6.07;;
66118;SDS011;52912;48.564;9.302;2022-10-19T10:47:20;10.75;;;5.82;;
66118;SDS011;52912;48.564;9.302;2022-10-19T10:49:51;9.57;;;5.78;;
66118;SDS011;52912;48.564;9.302;2022-10-19T10:52:20;9.68;;;5.43;;
66118;SDS011;52912;48.564;9.302;2022-10-19T10:54:56;7.28;;;5.18;;
66118;SDS011;52912;48.564;9.302;2022-10-19T10:57:23;9.13;;;5.55;;
66118;SDS011;52912;48.564;9.302;2022-10-19T10:59:52;9.98;;;5.45;;
66118;SDS011;52912;48.564;9.302;2022-10-19T11:02:27;9.50;;;5.68;;
66118;SDS011;52912;48.564;9.302;2022-10-19T11:05:00;8.43;;;5.13;;
66118;SDS011;52912;48.564;9.302;2022-10-19T11:07:30;10.48;;;5.45;;
66118;SDS011;52912;48.564;9.302;2022-10-19T11:09:58;7.47;;;4.63;;
66118;SDS011;52912;48.564;9.302;2022-10-19T11:12:33;8.65;;;4.88;;
66118;SDS011;52912;48.564;9.302;2022-10-19T11:15:03;7.25;;;4.90;;
66118;SDS011;52912;48.564;9.302;2022-10-19T11:17:38;6.05;;;4.07;;
66118;SDS011;52912;48.564;9.302;2022-10-19T11:20:12;5.82;;;4.15;;
66118;SDS011;52912;48.564;9.302;2022-10-19T11:22:39;7.13;;;4.53;;
66118;SDS011;52912;48.564;9.302;2022-10-19T11:25:20;6.82;;;4.70;;
66118;SDS011;52912;48.564;9.302;2022-10-19T11:27:52;6.80;;;4.20;;
66118;SDS011;52912;48.564;9.302;2022-10-19T11:30:25;6.10;;;3.80;;
66118;SDS011;52912;48.564;9.302;2022-10-19T11:32:56;6.68;;;3.92;;
66118;SDS011;52912;48.564;9.302;2022-10-19T11:35:34;6.65;;;3.88;;
66118;SDS011;52912;48.564;9.302;2022-10-19T11:38:09;5.90;;;3.60;;
66118;SDS011;52912;48.564;9.302;2022-10-19T11:40:59;7.43;;;3.50;;
66118;SDS011;52912;48.564;9.302;2022-10-19T11:43:35;5.72;;;3.75;;
66118;SDS011;52912;48.564;9.302;2022-10-19T11:46:06;8.80;;;3.53;;
66118;SDS011;52912;48.564;9.302;2022-10-19T11:48:45;4.88;;;3.85;;
66118;SDS011;52912;48.564;9.302;2022-10-19T11:51:24;5.82;;;3.85;;
66118;SDS011;52912;48.564;9.302;2022-10-19T11:53:59;7.60;;;4.63;;
66118;SDS011;52912;48.564;9.302;2022-10-19T11:56:33;7.85;;;5.35;;
66118;SDS011;52912;48.564;9.302;2022-10-19T11:59:05;9.50;;;5.18;;
66118;SDS011;52912;48.564;9.302;2022-10-19T12:01:42;8.35;;;5.55;;
66118;SDS011;52912;48.564;9.302;2022-10-19T12:04:26;13.57;;;5.97;;
66118;SDS011;52912;48.564;9.302;2022-10-19T12:07:05;8.57;;;6.45;;
66118;SDS011;52912;48.564;9.302;2022-10-19T12:09:44;9.50;;;6.13;;
66118;SDS011;52912;48.564;9.302;2022-10-19T12:12:21;10.23;;;6.38;;
66118;SDS011;52912;48.564;9.302;2022-10-19T12:14:51;11.07;;;6.70;;
66118;SDS011;52912;48.564;9.302;2022-10-19T12:17:19;10.18;;;6.55;;
66118;SDS011;52912;48.564;9.302;2022-10-19T12:19:52;8.50;;;6.50;;
66118;SDS011;52912;48.564;9.302;2022-10-19T12:22:20;10.43;;;6.45;;
66118;SDS011;52912;48.564;9.302;2022-10-19T12:27:14;10.75;;;6.40;;
66118;SDS011;52912;48.564;9.302;2022-10-19T12:29:45;9.73;;;6.72;;
66118;SDS011;52912;48.564;9.302;2022-10-19T12:32:13;8.73;;;6.33;;
66118;SDS011;52912;48.564;9.302;2022-10-19T12:34:44;9.23;;;6.47;;
66118;SDS011;52912;48.564;9.302;2022-10-19T12:37:21;9.68;;;6.30;;
66118;SDS011;52912;48.564;9.302;2022-10-19T12:39:52;7.82;;;5.30;;
66118;SDS011;52912;48.564;9.302;2022-10-19T12:42:23;7.32;;;5.88;;
66118;SDS011;52912;48.564;9.302;2022-10-19T12:44:56;8.35;;;6.15;;
66118;SDS011;52912;48.564;9.302;2022-10-19T12:47:34;9.80;;;6.43;;
66118;SDS011;52912;48.564;9.302;2022-10-19T12:49:59;8.05;;;5.38;;
66118;SDS011;52912;48.564;9.302;2022-10-19T12:52:36;6.53;;;5.10;;
66118;SDS011;52912;48.564;9.302;2022-10-19T12:55:11;9.73;;;5.30;;
66118;SDS011;52912;48.564;9.302;2022-10-19T12:57:48;8.27;;;5.45;;
66118;SDS011;52912;48.564;9.302;2022-10-19T13:00:22;7.95;;;5.32;;
66118;SDS011;52912;48.564;9.302;2022-10-19T13:02:54;7.85;;;5.35;;
66118;SDS011;52912;48.564;9.302;2022-10-19T13:05:24;9.00;;;4.97;;
66118;SDS011;52912;48.564;9.302;2022-10-19T13:07:53;6.32;;;4.53;;
66118;SDS011;52912;48.564;9.302;2022-10-19T13:10:20;6.03;;;4.63;;
66118;SDS011;52912;48.564;9.302;2022-10-19T13:12:47;8.07;;;4.80;;
66118;SDS011;52912;48.564;9.302;2022-10-19T13:21:43;5.90;;;4.35;;
66118;SDS011;52912;48.564;9.302;2022-10-19T13:24:19;6.40;;;4.70;;
66118;SDS011;52912;48.564;9.302;2022-10-19T13:27:04;6.90;;;4.53;;
66118;SDS011;52912;48.564;9.302;2022-10-19T13:29:54;6.78;;;4.80;;
66118;SDS011;52912;48.564;9.302;2022-10-19T13:32:36;8.95;;;4.43;;
66118;SDS011;52912;48.564;9.302;2022-10-19T13:35:23;6.13;;;4.10;;
66118;SDS011;52912;48.564;9.302;2022-10-19T13:40:58;6.38;;;4.60;;
66118;SDS011;52912;48.564;9.302;2022-10-19T13:43:26;7.65;;;4.30;;
66118;SDS011;52912;48.564;9.302;2022-10-19T13:46:02;6.18;;;4.53;;
66118;SDS011;52912;48.564;9.302;2022-10-19T13:48:36;6.70;;;4.75;;
66118;SDS011;52912;48.564;9.302;2022-10-19T13:51:23;6.38;;;4.65;;
66118;SDS011;52912;48.564;9.302;2022-10-19T13:53:56;6.93;;;4.40;;
66118;SDS011;52912;48.564;9.302;2022-10-19T13:56:38;7.90;;;4.80;;
66118;SDS011;52912;48.564;9.302;2022-10-19T14:02:19;9.10;;;5.95;;
66118;SDS011;52912;48.564;9.302;2022-10-19T14:05:09;9.27;;;5.78;;
66118;SDS011;52912;48.564;9.302;2022-10-19T14:07:52;8.88;;;4.95;;
66118;SDS011;52912;48.564;9.302;2022-10-19T14:10:27;7.93;;;5.53;;
66118;SDS011;52912;48.564;9.302;2022-10-19T14:12:54;9.75;;;6.18;;
66118;SDS011;52912;48.564;9.302;2022-10-19T14:15:22;7.60;;;4.88;;
66118;SDS011;52912;48.564;9.302;2022-10-19T14:17:49;9.77;;;5.28;;
66118;SDS011;52912;48.564;9.302;2022-10-19T14:20:23;9.45;;;5.30;;
66118;SDS011;52912;48.564;9.302;2022-10-19T14:22:51;6.88;;;5.20;;
66118;SDS011;52912;48.564;9.302;2022-10-19T14:25:17;8.68;;;5.00;;
66118;SDS011;52912;48.564;9.302;2022-10-19T14:27:44;7.88;;;5.70;;
66118;SDS011;52912;48.564;9.302;2022-10-19T14:30:19;7.78;;;5.05;;
66118;SDS011;52912;48.564;9.302;2022-10-19T14:32:46;6.55;;;4.32;;
66118;SDS011;52912;48.564;9.302;2022-10-19T14:35:16;7.00;;;4.95;;
66118;SDS011;52912;48.564;9.302;2022-10-19T14:37:44;6.93;;;5.15;;
66118;SDS011;52912;48.564;9.302;2022-10-19T14:40:21;10.20;;;5.57;;
66118;SDS011;52912;48.564;9.302;2022-10-19T14:45:16;8.95;;;5.30;;
66118;SDS011;52912;48.564;9.302;2022-10-19T14:47:51;6.95;;;5.20;;
66118;SDS011;52912;48.564;9.302;2022-10-19T14:50:17;6.82;;;5.03;;
66118;SDS011;52912;48.564;9.302;2022-10-19T14:52:45;6.80;;;4.93;;
66118;SDS011;52912;48.564;9.302;2022-10-19T14:55:13;6.80;;;5.00;;
66118;SDS011;52912;48.564;9.302;2022-10-19T15:00:13;7.22;;;5.20;;
66118;SDS011;52912;48.564;9.302;2022-10-19T15:02:43;7.78;;;4.97;;
66118;SDS011;52912;48.564;9.302;2022-10-19T15:05:14;9.15;;;5.13;;
66118;SDS011;52912;48.564;9.302;2022-10-19T15:07:43;7.88;;;4.70;;
66118;SDS011;52912;48.564;9.302;2022-10-19T15:10:15;6.60;;;4.72;;
66118;SDS011;52912;48.564;9.302;2022-10-19T15:12:43;7.10;;;5.18;;
66118;SDS011;52912;48.564;9.302;2022-10-19T15:15:12;7.75;;;4.90;;
66118;SDS011;52912;48.564;9.302;2022-10-19T15:17:48;8.45;;;5.63;;
66118;SDS011;52912;48.564;9.302;2022-10-19T15:20:22;8.80;;;5.20;;